sensor_id;sensor_type;location;lat;lon;timestamp;pressure;altitude;pressure_sealevel;temperature;humidity
18765;BME280;9511;54.242;12.448;2023-07-29T03:05:20;100510.97;;;13.16;100.00
18765;BME280;9511;54.242;12.448;2023-07-29T03:07:48;100519.81;;;13.18;100.00
18765;BME280;9511;54.242;12.448;2023-07-29T03:10:15;100517.22;;;13.19;100.00
18765;BME280;9511;54.242;12.448;2023-07-29T03:12:43;100514.59;;;13.22;100.00
18765;BME280;9511;54.242;12.448;2023-07-29T03:15:11;100517.25;;;13.24;100.00
18765;BME280;9511;54.242;12.448;2023-07-29T03:17:38;100513.75;;;13.26;100.00
18765;BME280;9511;54.242;12.448;2023-07-29T03:20:07;100502.16;;;13.20;100.00
18765;BME280;9511;54.242;12.448;2023-07-29T03:22:35;100504.72;;;13.12;100.00
18765;BME280;9511;54.242;12.448;2023-07-29T03:25:03;100510.03;;;13.12;100.00
18765;BME280;9511;54.242;12.448;2023-07-29T03:27:31;100506.47;;;13.10;100.00
18765;BME280;9511;54.242;12.448;2023-07-29T03:29:59;100502.91;;;13.08;100.00
18765;BME280;9511;54.242;12.448;2023-07-29T03:32:27;100502.00;;;13.06;100.00
18765;BME280;9511;54.242;12.448;2023-07-29T03:34:54;100503.75;;;13.06;100.00
18765;BME280;9511;54.242;12.448;2023-07-29T03:37:21;100499.38;;;13.09;100.00
18765;BME280;9511;54.242;12.448;2023-07-29T03:39:50;100509.13;;;13.12;100.00
18765;BME280;9511;54.242;12.448;2023-07-29T03:42:18;100510.97;;;13.19;100.00
18765;BME280;9511;54.242;12.448;2023-07-29T03:44:45;100506.69;;;13.27;100.00
18765;BME280;9511;54.242;12.448;2023-07-29T03:47:12;100504.97;;;13.34;100.00
18765;BME280;9511;54.242;12.448;2023-07-29T03:49:42;100504.13;;;13.39;100.00
18765;BME280;9511;54.242;12.448;2023-07-29T03:52:10;100505.91;;;13.40;100.00
18765;BME280;9511;54.242;12.448;2023-07-29T03:54:37;100502.44;;;13.47;100.00
18765;BME280;9511;54.242;12.448;2023-07-29T03:57:06;100501.59;;;13.50;100.00
18765;BME280;9511;54.242;12.448;2023-07-29T03:59:34;100504.31;;;13.58;100.00
18765;BME280;9511;54.242;12.448;2023-07-29T04:02:01;100499.97;;;13.66;100.00
18765;BME280;9511;54.242;12.448;2023-07-29T04:04:28;100504.44;;;13.73;100.00
18765;BME280;9511;54.242;12.448;2023-07-29T04:06:56;100497.41;;;13.81;100.00
18765;BME280;9511;54.242;12.448;2023-07-29T04:09:23;100500.09;;;13.87;100.00
18765;BME280;9511;54.242;12.448;2023-07-29T04:11:51;100502.81;;;13.90;100.00
18765;BME280;9511;54.242;12.448;2023-07-29T04:14:19;100501.97;;;13.96;100.00
18765;BME280;9511;54.242;12.448;2023-07-29T04:16:46;100493.97;;;13.97;100.00
18765;BME280;9511;54.242;12.448;2023-07-29T04:19:15;100486.88;;;13.96;100.00
18765;BME280;9511;54.242;12.448;2023-07-29T04:21:42;100485.13;;;13.97;100.00
18765;BME280;9511;54.242;12.448;2023-07-29T04:24:09;100478.94;;;13.99;100.00
18765;BME280;9511;54.242;12.448;2023-07-29T04:26:36;100479.84;;;14.03;100.00
18765;BME280;9511;54.242;12.448;2023-07-29T04:29:05;100478.03;;;13.97;100.00
18765;BME280;9511;54.242;12.448;2023-07-29T04:31:33;100486.00;;;13.97;100.00
18765;BME280;9511;54.242;12.448;2023-07-29T04:34:00;100473.66;;;14.07;100.00
18765;BME280;9511;54.242;12.448;2023-07-29T04:36:28;100474.56;;;14.11;100.00
18765;BME280;9511;54.242;12.448;2023-07-29T04:38:55;100471.03;;;14.15;100.00
18765;BME280;9511;54.242;12.448;2023-07-29T04:41:22;100451.59;;;14.25;100.00
18765;BME280;9511;54.242;12.448;2023-07-29T04:43:51;100442.75;;;14.33;100.00
18765;BME280;9511;54.242;12.448;2023-07-29T04:46:18;100443.75;;;14.49;100.00
18765;BME280;9511;54.242;12.448;2023-07-29T04:48:47;100438.50;;;14.69;100.00
18765;BME280;9511;54.242;12.448;2023-07-29T04:51:14;100455.44;;;14.91;100.00
18765;BME280;9511;54.242;12.448;2023-07-29T04:53:41;100462.59;;;15.09;100.00
18765;BME280;9511;54.242;12.448;2023-07-29T04:56:08;100452.81;;;15.23;100.00
18765;BME280;9511;54.242;12.448;2023-07-29T04:58:35;100453.72;;;15.33;100.00
18765;BME280;9511;54.242;12.448;2023-07-29T05:01:03;100459.03;;;15.42;100.00
18765;BME280;9511;54.242;12.448;2023-07-29T05:03:31;100461.75;;;15.50;100.00
18765;BME280;9511;54.242;12.448;2023-07-29T05:05:59;100452.81;;;15.54;100.00
18765;BME280;9511;54.242;12.448;2023-07-29T05:08:28;100454.59;;;15.59;100.00
18765;BME280;9511;54.242;12.448;2023-07-29T05:10:55;100455.53;;;15.63;100.00
18765;BME280;9511;54.242;12.448;2023-07-29T05:13:23;100460.00;;;15.65;100.00
18765;BME280;9511;54.242;12.448;2023-07-29T05:15:50;100466.19;;;15.71;100.00
18765;BME280;9511;54.242;12.448;2023-07-29T05:18:18;100464.41;;;15.76;100.00
18765;BME280;9511;54.242;12.448;2023-07-29T05:20:46;100471.53;;;15.80;100.00
18765;BME280;9511;54.242;12.448;2023-07-29T05:23:15;100473.31;;;15.84;100.00
18765;BME280;9511;54.242;12.448;2023-07-29T05:25:42;100463.53;;;15.90;100.00
18765;BME280;9511;54.242;12.448;2023-07-29T05:28:09;100466.19;;;15.95;100.00
18765;BME280;9511;54.242;12.448;2023-07-29T05:30:37;100462.59;;;15.99;100.00
18765;BME280;9511;54.242;12.448;2023-07-29T05:33:06;100462.59;;;16.02;100.00
18765;BME280;9511;54.242;12.448;2023-07-29T05:35:34;100461.69;;;16.09;100.00
18765;BME280;9511;54.242;12.448;2023-07-29T05:38:01;100469.66;;;16.17;100.00
18765;BME280;9511;54.242;12.448;2023-07-29T05:40:32;100458.13;;;16.24;100.00
18765;BME280;9511;54.242;12.448;2023-07-29T05:42:59;100454.50;;;16.34;100.00
18765;BME280;9511;54.242;12.448;2023-07-29T05:45:27;100454.47;;;16.43;100.00
18765;BME280;9511;54.242;12.448;2023-07-29T05:47:57;100450.91;;;16.52;100.00
18765;BME280;9511;54.242;12.448;2023-07-29T05:50:24;100457.06;;;16.62;100.00
18765;BME280;9511;54.242;12.448;2023-07-29T05:52:51;100451.72;;;16.69;100.00
18765;BME280;9511;54.242;12.448;2023-07-29T05:55:18;100449.94;;;16.75;100.00
18765;BME280;9511;54.242;12.448;2023-07-29T05:57:47;100453.44;;;16.80;100.00
18765;BME280;9511;54.242;12.448;2023-07-29T06:00:15;100452.53;;;16.84;100.00
18765;BME280;9511;54.242;12.448;2023-07-29T06:02:42;100454.28;;;16.89;100.00
18765;BME280;9511;54.242;12.448;2023-07-29T06:05:14;100441.81;;;16.94;100.00
18765;BME280;9511;54.242;12.448;2023-07-29T06:07:41;100444.41;;;17.02;100.00
18765;BME280;9511;54.242;12.448;2023-07-29T06:10:13;100440.84;;;17.09;100.00
18765;BME280;9511;54.242;12.448;2023-07-29T06:12:43;100438.97;;;17.14;100.00
18765;BME280;9511;54.242;12.448;2023-07-29T06:15:12;100444.31;;;17.20;100.00
18765;BME280;9511;54.242;12.448;2023-07-29T06:17:40;100442.50;;;17.22;100.00
18765;BME280;9511;54.242;12.448;2023-07-29T06:20:07;100437.16;;;17.22;100.00
18765;BME280;9511;54.242;12.448;2023-07-29T06:22:35;100429.06;;;17.32;100.00
18765;BME280;9511;54.242;12.448;2023-07-29T06:25:03;100432.63;;;17.34;100.00
18765;BME280;9511;54.242;12.448;2023-07-29T06:27:30;100420.09;;;17.40;100.00
18765;BME280;9511;54.242;12.448;2023-07-29T06:29:57;100416.47;;;17.46;100.00
18765;BME280;9511;54.242;12.448;2023-07-29T06:32:26;100405.75;;;17.50;100.00
18765;BME280;9511;54.242;12.448;2023-07-29T06:34:53;100412.81;;;17.58;100.00
18765;BME280;9511;54.242;12.448;2023-07-29T06:37:20;100411.84;;;17.66;100.00
18765;BME280;9511;54.242;12.448;2023-07-29T06:39:48;100409.97;;;17.76;100.00
18765;BME280;9511;54.242;12.448;2023-07-29T06:42:16;100413.53;;;17.80;100.00
18765;BME280;9511;54.242;12.448;2023-07-29T06:44:43;100395.59;;;17.88;100.00
18765;BME280;9511;54.242;12.448;2023-07-29T06:47:11;100399.97;;;17.96;100.00
18765;BME280;9511;54.242;12.448;2023-07-29T06:49:40;100397.19;;;18.04;100.00
18765;BME280;9511;54.242;12.448;2023-07-29T06:52:07;100400.66;;;18.15;100.00
18765;BME280;9511;54.242;12.448;2023-07-29T06:54:35;100396.97;;;18.22;100.00
18765;BME280;9511;54.242;12.448;2023-07-29T06:57:02;100398.63;;;18.36;100.00
18765;BME280;9511;54.242;12.448;2023-07-29T06:59:30;100394.97;;;18.40;100.00
18765;BME280;9511;54.242;12.448;2023-07-29T07:01:57;100398.47;;;18.48;100.00
18765;BME280;9511;54.242;12.448;2023-07-29T07:04:26;100392.16;;;18.50;100.00
18765;BME280;9511;54.242;12.448;2023-07-29T07:06:54;100395.56;;;18.65;100.00
18765;BME280;9511;54.242;12.448;2023-07-29T07:09:21;100393.56;;;18.80;100.00
18765;BME280;9511;54.242;12.448;2023-07-29T07:11:49;100393.31;;;18.97;100.00
18765;BME280;9511;54.242;12.448;2023-07-29T07:14:16;100391.41;;;19.05;100.00
18765;BME280;9511;54.242;12.448;2023-07-29T07:16:43;100393.06;;;19.14;100.00
18765;BME280;9511;54.242;12.448;2023-07-29T07:19:11;100382.94;;;19.31;100.00
18765;BME280;9511;54.242;12.448;2023-07-29T07:21:38;100384.53;;;19.45;100.00
18765;BME280;9511;54.242;12.448;2023-07-29T07:24:07;100394.00;;;19.67;100.00
18765;BME280;9511;54.242;12.448;2023-07-29T07:26:34;100388.28;;;19.85;100.00
18765;BME280;9511;54.242;12.448;2023-07-29T07:29:02;100396.81;;;20.06;100.00
18765;BME280;9511;54.242;12.448;2023-07-29T07:31:33;100399.47;;;20.09;100.00
18765;BME280;9511;54.242;12.448;2023-07-29T07:34:00;100387.81;;;20.10;98.23
18765;BME280;9511;54.242;12.448;2023-07-29T07:36:29;100394.56;;;20.31;96.56
18765;BME280;9511;54.242;12.448;2023-07-29T07:38:56;100389.09;;;20.34;95.20
18765;BME280;9511;54.242;12.448;2023-07-29T07:41:25;100371.91;;;20.42;94.50
18765;BME280;9511;54.242;12.448;2023-07-29T07:43:52;100378.16;;;20.43;94.31
18765;BME280;9511;54.242;12.448;2023-07-29T07:46:19;100382.66;;;20.42;93.82
18765;BME280;9511;54.242;12.448;2023-07-29T07:48:46;100381.47;;;20.57;93.12
18765;BME280;9511;54.242;12.448;2023-07-29T07:51:14;100382.22;;;20.64;92.65
18765;BME280;9511;54.242;12.448;2023-07-29T07:53:41;100372.25;;;20.69;92.21
18765;BME280;9511;54.242;12.448;2023-07-29T07:56:08;100368.13;;;20.91;91.94
18765;BME280;9511;54.242;12.448;2023-07-29T07:58:37;100368.56;;;21.10;91.22
18765;BME280;9511;54.242;12.448;2023-07-29T08:01:05;100363.69;;;21.28;90.23
18765;BME280;9511;54.242;12.448;2023-07-29T08:03:33;100351.66;;;21.42;89.20
18765;BME280;9511;54.242;12.448;2023-07-29T08:06:00;100349.34;;;21.63;87.65
18765;BME280;9511;54.242;12.448;2023-07-29T08:08:28;100341.22;;;21.64;86.49
18765;BME280;9511;54.242;12.448;2023-07-29T08:10:56;100341.63;;;21.49;85.69
18765;BME280;9511;54.242;12.448;2023-07-29T08:13:24;100327.28;;;21.81;85.49
18765;BME280;9511;54.242;12.448;2023-07-29T08:15:53;100333.41;;;22.19;84.89
18765;BME280;9511;54.242;12.448;2023-07-29T08:18:20;100338.34;;;22.34;83.26
18765;BME280;9511;54.242;12.448;2023-07-29T08:20:52;100340.13;;;22.35;82.95
18765;BME280;9511;54.242;12.448;2023-07-29T08:23:22;100342.78;;;22.37;82.42
18765;BME280;9511;54.242;12.448;2023-07-29T08:25:54;100330.81;;;22.45;82.07
18765;BME280;9511;54.242;12.448;2023-07-29T08:28:22;100333.91;;;22.33;81.92
18765;BME280;9511;54.242;12.448;2023-07-29T08:30:52;100341.41;;;22.22;82.05
18765;BME280;9511;54.242;12.448;2023-07-29T08:33:20;100334.78;;;22.34;82.02
18765;BME280;9511;54.242;12.448;2023-07-29T08:35:47;100330.53;;;22.25;81.93
18765;BME280;9511;54.242;12.448;2023-07-29T08:38:15;100330.03;;;22.42;81.73
18765;BME280;9511;54.242;12.448;2023-07-29T08:40:47;100330.94;;;22.42;81.75
18765;BME280;9511;54.242;12.448;2023-07-29T08:43:19;100336.47;;;22.36;81.92
18765;BME280;9511;54.242;12.448;2023-07-29T08:45:47;100337.53;;;22.32;81.72
18765;BME280;9511;54.242;12.448;2023-07-29T08:48:19;100335.91;;;22.25;82.20
18765;BME280;9511;54.242;12.448;2023-07-29T08:50:49;100344.19;;;22.19;82.77
18765;BME280;9511;54.242;12.448;2023-07-29T08:53:17;100330.94;;;22.11;82.54
18765;BME280;9511;54.242;12.448;2023-07-29T08:55:44;100334.78;;;22.03;82.18
18765;BME280;9511;54.242;12.448;2023-07-29T08:58:12;100335.72;;;22.00;82.43
18765;BME280;9511;54.242;12.448;2023-07-29T09:00:39;100340.78;;;22.14;82.50
18765;BME280;9511;54.242;12.448;2023-07-29T09:03:07;100335.66;;;22.34;81.82
18765;BME280;9511;54.242;12.448;2023-07-29T09:05:36;100339.53;;;22.53;81.41
18765;BME280;9511;54.242;12.448;2023-07-29T09:08:04;100339.47;;;22.57;81.11
18765;BME280;9511;54.242;12.448;2023-07-29T09:10:35;100335.28;;;22.46;80.77
18765;BME280;9511;54.242;12.448;2023-07-29T09:13:03;100335.28;;;22.46;80.49
18765;BME280;9511;54.242;12.448;2023-07-29T09:15:32;100331.75;;;22.15;80.75
18765;BME280;9511;54.242;12.448;2023-07-29T09:17:59;100323.34;;;22.25;80.30
18765;BME280;9511;54.242;12.448;2023-07-29T09:20:36;100326.69;;;22.63;80.11
18765;BME280;9511;54.242;12.448;2023-07-29T09:23:07;100328.94;;;22.47;79.39
18765;BME280;9511;54.242;12.448;2023-07-29T09:25:36;100327.84;;;22.55;79.08
18765;BME280;9511;54.242;12.448;2023-07-29T09:28:08;100328.69;;;22.57;78.83
18765;BME280;9511;54.242;12.448;2023-07-29T09:30:37;100325.66;;;22.67;78.18
18765;BME280;9511;54.242;12.448;2023-07-29T09:33:04;100327.59;;;22.62;77.18
18765;BME280;9511;54.242;12.448;2023-07-29T09:35:33;100315.41;;;22.50;77.86
18765;BME280;9511;54.242;12.448;2023-07-29T09:38:02;100321.53;;;22.56;77.83
18765;BME280;9511;54.242;12.448;2023-07-29T09:40:34;100315.34;;;22.52;77.04
18765;BME280;9511;54.242;12.448;2023-07-29T09:43:03;100308.88;;;22.58;76.54
18765;BME280;9511;54.242;12.448;2023-07-29T09:45:33;100313.09;;;22.96;75.64
18765;BME280;9511;54.242;12.448;2023-07-29T09:48:01;100309.53;;;22.94;74.49
18765;BME280;9511;54.242;12.448;2023-07-29T09:50:29;100309.88;;;23.11;74.43
18765;BME280;9511;54.242;12.448;2023-07-29T09:52:56;100307.81;;;23.44;74.86
18765;BME280;9511;54.242;12.448;2023-07-29T09:55:26;100313.28;;;23.43;72.88
18765;BME280;9511;54.242;12.448;2023-07-29T09:57:56;100314.41;;;23.62;73.00
18765;BME280;9511;54.242;12.448;2023-07-29T10:00:24;100306.66;;;24.01;72.69
18765;BME280;9511;54.242;12.448;2023-07-29T10:02:51;100312.94;;;23.78;70.87
18765;BME280;9511;54.242;12.448;2023-07-29T10:05:21;100316.25;;;23.87;71.07
18765;BME280;9511;54.242;12.448;2023-07-29T10:07:49;100313.69;;;23.57;71.90
18765;BME280;9511;54.242;12.448;2023-07-29T10:10:17;100307.75;;;23.72;72.07
18765;BME280;9511;54.242;12.448;2023-07-29T10:12:46;100320.06;;;23.54;71.71
18765;BME280;9511;54.242;12.448;2023-07-29T10:15:13;100317.06;;;23.37;71.78
18765;BME280;9511;54.242;12.448;2023-07-29T10:17:41;100303.25;;;23.46;72.45
18765;BME280;9511;54.242;12.448;2023-07-29T10:20:10;100297.75;;;23.49;72.56
18765;BME280;9511;54.242;12.448;2023-07-29T10:22:39;100304.00;;;23.25;72.81
18765;BME280;9511;54.242;12.448;2023-07-29T10:25:08;100306.78;;;23.22;73.32
18765;BME280;9511;54.242;12.448;2023-07-29T10:27:43;100307.78;;;23.19;73.38
18765;BME280;9511;54.242;12.448;2023-07-29T10:30:12;100313.66;;;23.32;73.21
18765;BME280;9511;54.242;12.448;2023-07-29T10:32:42;100311.97;;;23.28;72.79
18765;BME280;9511;54.242;12.448;2023-07-29T10:35:11;100314.38;;;23.11;73.08
18765;BME280;9511;54.242;12.448;2023-07-29T10:37:39;100312.19;;;23.22;73.12
18765;BME280;9511;54.242;12.448;2023-07-29T10:40:09;100315.53;;;23.55;73.28
18765;BME280;9511;54.242;12.448;2023-07-29T10:42:37;100297.09;;;23.68;70.99
18765;BME280;9511;54.242;12.448;2023-07-29T10:45:21;100291.88;;;23.88;70.03
18765;BME280;9511;54.242;12.448;2023-07-29T10:47:49;100287.56;;;23.82;69.49
18765;BME280;9511;54.242;12.448;2023-07-29T10:50:18;100283.59;;;23.68;69.04
18765;BME280;9511;54.242;12.448;2023-07-29T10:52:50;100282.84;;;23.64;69.27
18765;BME280;9511;54.242;12.448;2023-07-29T10:55:28;100281.88;;;23.90;70.86
18765;BME280;9511;54.242;12.448;2023-07-29T10:58:05;100284.72;;;23.87;69.67
18765;BME280;9511;54.242;12.448;2023-07-29T11:00:34;100284.22;;;23.76;68.85
18765;BME280;9511;54.242;12.448;2023-07-29T11:03:02;100276.13;;;23.76;68.41
18765;BME280;9511;54.242;12.448;2023-07-29T11:05:44;100278.22;;;23.91;68.64
18765;BME280;9511;54.242;12.448;2023-07-29T11:08:23;100281.91;;;23.65;68.65
18765;BME280;9511;54.242;12.448;2023-07-29T11:11:04;100273.66;;;23.70;69.84
18765;BME280;9511;54.242;12.448;2023-07-29T11:13:33;100267.00;;;23.53;69.38
18765;BME280;9511;54.242;12.448;2023-07-29T11:16:03;100261.25;;;23.64;68.72
18765;BME280;9511;54.242;12.448;2023-07-29T11:18:32;100259.91;;;23.76;68.53
18765;BME280;9511;54.242;12.448;2023-07-29T11:21:01;100251.63;;;24.27;70.85
18765;BME280;9511;54.242;12.448;2023-07-29T11:23:32;100255.69;;;24.16;73.59
18765;BME280;9511;54.242;12.448;2023-07-29T11:26:01;100246.03;;;24.08;75.40
18765;BME280;9511;54.242;12.448;2023-07-29T11:28:28;100251.81;;;24.46;74.83
18765;BME280;9511;54.242;12.448;2023-07-29T11:30:57;100246.78;;;24.59;74.39
18765;BME280;9511;54.242;12.448;2023-07-29T11:33:27;100252.31;;;24.78;75.00
18765;BME280;9511;54.242;12.448;2023-07-29T11:35:55;100249.88;;;24.26;75.17
18765;BME280;9511;54.242;12.448;2023-07-29T11:38:22;100253.66;;;23.99;76.03
18765;BME280;9511;54.242;12.448;2023-07-29T11:40:57;100266.19;;;23.51;75.84
18765;BME280;9511;54.242;12.448;2023-07-29T11:43:25;100279.06;;;23.43;76.89
18765;BME280;9511;54.242;12.448;2023-07-29T11:45:53;100274.00;;;23.08;78.69
18765;BME280;9511;54.242;12.448;2023-07-29T11:48:30;100270.38;;;22.80;80.38
18765;BME280;9511;54.242;12.448;2023-07-29T11:50:58;100272.00;;;22.86;80.29
18765;BME280;9511;54.242;12.448;2023-07-29T11:53:27;100268.09;;;22.40;81.62
18765;BME280;9511;54.242;12.448;2023-07-29T11:55:55;100272.94;;;22.29;82.63
18765;BME280;9511;54.242;12.448;2023-07-29T11:58:23;100274.81;;;22.27;83.22
18765;BME280;9511;54.242;12.448;2023-07-29T12:00:55;100269.03;;;22.10;83.28
18765;BME280;9511;54.242;12.448;2023-07-29T12:03:23;100270.84;;;22.08;83.09
18765;BME280;9511;54.242;12.448;2023-07-29T12:05:52;100275.28;;;21.79;82.62
18765;BME280;9511;54.242;12.448;2023-07-29T12:08:19;100287.56;;;21.58;83.31
18765;BME280;9511;54.242;12.448;2023-07-29T12:10:46;100293.63;;;21.32;84.13
18765;BME280;9511;54.242;12.448;2023-07-29T12:13:14;100288.50;;;21.21;84.80
18765;BME280;9511;54.242;12.448;2023-07-29T12:15:42;100292.47;;;20.71;82.56
18765;BME280;9511;54.242;12.448;2023-07-29T12:18:09;100314.47;;;20.06;85.11
18765;BME280;9511;54.242;12.448;2023-07-29T12:20:36;100319.16;;;19.49;86.76
18765;BME280;9511;54.242;12.448;2023-07-29T12:23:05;100346.34;;;19.29;86.22
18765;BME280;9511;54.242;12.448;2023-07-29T12:25:36;100355.50;;;19.14;87.95
18765;BME280;9511;54.242;12.448;2023-07-29T12:28:04;100353.97;;;19.01;91.33
18765;BME280;9511;54.242;12.448;2023-07-29T12:30:32;100341.94;;;18.68;92.93
18765;BME280;9511;54.242;12.448;2023-07-29T12:32:59;100334.28;;;18.39;95.45
18765;BME280;9511;54.242;12.448;2023-07-29T12:35:36;100336.22;;;18.30;98.68
18765;BME280;9511;54.242;12.448;2023-07-29T12:38:05;100338.09;;;18.22;100.00
18765;BME280;9511;54.242;12.448;2023-07-29T12:40:32;100335.53;;;18.12;100.00
18765;BME280;9511;54.242;12.448;2023-07-29T12:43:00;100341.97;;;17.97;100.00
18765;BME280;9511;54.242;12.448;2023-07-29T12:45:27;100339.53;;;17.71;100.00
18765;BME280;9511;54.242;12.448;2023-07-29T12:48:02;100344.19;;;17.53;100.00
18765;BME280;9511;54.242;12.448;2023-07-29T12:50:29;100346.28;;;17.22;100.00
18765;BME280;9511;54.242;12.448;2023-07-29T12:52:58;100340.09;;;17.14;100.00
18765;BME280;9511;54.242;12.448;2023-07-29T12:55:26;100340.22;;;17.01;100.00
18765;BME280;9511;54.242;12.448;2023-07-29T12:57:53;100330.47;;;16.95;100.00
18765;BME280;9511;54.242;12.448;2023-07-29T13:00:20;100331.38;;;16.91;100.00
18765;BME280;9511;54.242;12.448;2023-07-29T13:02:48;100325.97;;;17.00;100.00
18765;BME280;9511;54.242;12.448;2023-07-29T13:05:15;100317.03;;;17.03;100.00
18765;BME280;9511;54.242;12.448;2023-07-29T13:07:43;100320.56;;;17.08;100.00
18765;BME280;9511;54.242;12.448;2023-07-29T13:10:11;100319.56;;;17.19;100.00
18765;BME280;9511;54.242;12.448;2023-07-29T13:12:40;100317.72;;;17.24;100.00
18765;BME280;9511;54.242;12.448;2023-07-29T13:15:08;100332.88;;;17.24;100.00
18765;BME280;9511;54.242;12.448;2023-07-29T13:17:35;100323.06;;;17.24;100.00
18765;BME280;9511;54.242;12.448;2023-07-29T13:20:04;100325.69;;;17.31;100.00
18765;BME280;9511;54.242;12.448;2023-07-29T13:22:31;100328.38;;;17.31;100.00
18765;BME280;9511;54.242;12.448;2023-07-29T13:24:59;100317.59;;;17.40;100.00
18765;BME280;9511;54.242;12.448;2023-07-29T13:27:26;100334.50;;;17.43;100.00
18765;BME280;9511;54.242;12.448;2023-07-29T13:29:54;100330.84;;;17.52;100.00
18765;BME280;9511;54.242;12.448;2023-07-29T13:32:22;100328.16;;;17.52;100.00
18765;BME280;9511;54.242;12.448;2023-07-29T13:34:49;100322.69;;;17.64;100.00
18765;BME280;9511;54.242;12.448;2023-07-29T13:37:16;100330.72;;;17.63;100.00
18765;BME280;9511;54.242;12.448;2023-07-29T13:39:44;100326.22;;;17.72;100.00
18765;BME280;9511;54.242;12.448;2023-07-29T13:42:11;100321.66;;;17.81;100.00
18765;BME280;9511;54.242;12.448;2023-07-29T13:44:38;100320.59;;;17.94;100.00
18765;BME280;9511;54.242;12.448;2023-07-29T13:47:07;100313.06;;;18.23;100.00
18765;BME280;9511;54.242;12.448;2023-07-29T13:49:34;100329.00;;;18.36;100.00
18765;BME280;9511;54.242;12.448;2023-07-29T13:52:01;100325.84;;;18.71;100.00
18765;BME280;9511;54.242;12.448;2023-07-29T13:54:29;100328.06;;;19.00;100.00
18765;BME280;9511;54.242;12.448;2023-07-29T13:56:56;100326.50;;;19.37;100.00
18765;BME280;9511;54.242;12.448;2023-07-29T13:59:24;100330.38;;;19.72;100.00
18765;BME280;9511;54.242;12.448;2023-07-29T14:01:51;100322.25;;;20.20;99.78
18765;BME280;9511;54.242;12.448;2023-07-29T14:04:19;100322.72;;;20.39;97.75
18765;BME280;9511;54.242;12.448;2023-07-29T14:06:47;100326.63;;;20.66;96.42
18765;BME280;9511;54.242;12.448;2023-07-29T14:09:14;100321.06;;;21.11;95.12
18765;BME280;9511;54.242;12.448;2023-07-29T14:11:41;100321.22;;;21.40;93.95
18765;BME280;9511;54.242;12.448;2023-07-29T14:14:09;100315.31;;;21.60;91.82
18765;BME280;9511;54.242;12.448;2023-07-29T14:16:36;100315.00;;;21.71;90.58
18765;BME280;9511;54.242;12.448;2023-07-29T14:19:03;100320.22;;;21.44;90.86
18765;BME280;9511;54.242;12.448;2023-07-29T14:21:32;100319.38;;;21.42;90.64
18765;BME280;9511;54.242;12.448;2023-07-29T14:23:59;100319.91;;;21.55;90.97
18765;BME280;9511;54.242;12.448;2023-07-29T14:26:27;100316.34;;;21.87;90.46
18765;BME280;9511;54.242;12.448;2023-07-29T14:28:54;100326.13;;;21.59;88.26
18765;BME280;9511;54.242;12.448;2023-07-29T14:31:21;100320.94;;;21.15;88.54
18765;BME280;9511;54.242;12.448;2023-07-29T14:33:49;100317.84;;;21.32;89.93
18765;BME280;9511;54.242;12.448;2023-07-29T14:36:16;100308.25;;;21.20;89.21
18765;BME280;9511;54.242;12.448;2023-07-29T14:38:45;100301.19;;;20.81;89.32
18765;BME280;9511;54.242;12.448;2023-07-29T14:41:12;100302.81;;;20.86;90.57
18765;BME280;9511;54.242;12.448;2023-07-29T14:43:40;100301.50;;;21.04;91.05
18765;BME280;9511;54.242;12.448;2023-07-29T14:46:07;100299.94;;;20.95;90.36
18765;BME280;9511;54.242;12.448;2023-07-29T14:48:34;100295.06;;;21.10;90.82
18765;BME280;9511;54.242;12.448;2023-07-29T14:51:01;100295.84;;;21.15;90.67
18765;BME280;9511;54.242;12.448;2023-07-29T14:53:29;100286.16;;;21.43;89.37
18765;BME280;9511;54.242;12.448;2023-07-29T14:55:57;100291.41;;;21.48;88.13
18765;BME280;9511;54.242;12.448;2023-07-29T14:58:24;100292.34;;;22.11;86.59
18765;BME280;9511;54.242;12.448;2023-07-29T15:00:52;100292.19;;;23.29;84.41
18765;BME280;9511;54.242;12.448;2023-07-29T15:03:19;100289.91;;;24.40;81.84
18765;BME280;9511;54.242;12.448;2023-07-29T15:05:46;100289.75;;;24.20;79.59
18765;BME280;9511;54.242;12.448;2023-07-29T15:08:14;100287.34;;;24.12;78.31
18765;BME280;9511;54.242;12.448;2023-07-29T15:10:44;100283.69;;;24.13;77.65
18765;BME280;9511;54.242;12.448;2023-07-29T15:13:13;100287.03;;;23.96;79.13
18765;BME280;9511;54.242;12.448;2023-07-29T15:15:41;100289.75;;;23.46;80.38
18765;BME280;9511;54.242;12.448;2023-07-29T15:18:09;100288.16;;;23.91;79.75
18765;BME280;9511;54.242;12.448;2023-07-29T15:20:36;100295.91;;;24.70;79.52
18765;BME280;9511;54.242;12.448;2023-07-29T15:23:04;100287.22;;;25.48;75.46
18765;BME280;9511;54.242;12.448;2023-07-29T15:25:31;100283.84;;;25.43;74.12
18765;BME280;9511;54.242;12.448;2023-07-29T15:27:58;100276.44;;;26.27;72.66
18765;BME280;9511;54.242;12.448;2023-07-29T15:30:28;100268.94;;;26.32;69.80
18765;BME280;9511;54.242;12.448;2023-07-29T15:32:55;100285.84;;;26.38;71.47
18765;BME280;9511;54.242;12.448;2023-07-29T15:35:22;100282.06;;;25.62;72.75
18765;BME280;9511;54.242;12.448;2023-07-29T15:37:50;100293.28;;;25.12;73.56
18765;BME280;9511;54.242;12.448;2023-07-29T15:40:17;100289.06;;;24.61;75.66
18765;BME280;9511;54.242;12.448;2023-07-29T15:42:45;100286.50;;;24.35;77.07
18765;BME280;9511;54.242;12.448;2023-07-29T15:45:12;100273.41;;;23.76;78.66
18765;BME280;9511;54.242;12.448;2023-07-29T15:47:41;100285.50;;;23.39;80.00
18765;BME280;9511;54.242;12.448;2023-07-29T15:50:09;100287.88;;;23.23;80.42
18765;BME280;9511;54.242;12.448;2023-07-29T15:52:37;100279.34;;;22.81;82.62
18765;BME280;9511;54.242;12.448;2023-07-29T15:55:08;100274.81;;;22.55;84.72